sensor_id;sensor_type;location;lat;lon;timestamp;pressure;altitude;pressure_sealevel;temperature;humidity
29879;BME280;16752;53.364;-1.488;2023-09-12T00:02:13;100109.25;;;25.69;49.42
29879;BME280;16752;53.364;-1.488;2023-09-12T00:04:57;100080.72;;;25.41;49.64
29879;BME280;16752;53.364;-1.488;2023-09-12T00:07:41;100074.69;;;25.26;49.89
29879;BME280;16752;53.364;-1.488;2023-09-12T00:10:25;100147.03;;;25.87;49.78
29879;BME280;16752;53.364;-1.488;2023-09-12T00:13:09;100141.63;;;25.74;50.15
29879;BME280;16752;53.364;-1.488;2023-09-12T00:15:52;100073.88;;;25.25;50.65
29879;BME280;16752;53.364;-1.488;2023-09-12T00:18:37;100067.88;;;25.30;49.94
29879;BME280;16752;53.364;-1.488;2023-09-12T00:21:22;100152.44;;;25.26;50.28
29879;BME280;16752;53.364;-1.488;2023-09-12T00:24:06;100075.25;;;25.02;49.91
29879;BME280;16752;53.364;-1.488;2023-09-12T00:26:50;100108.56;;;25.47;49.52
29879;BME280;16752;53.364;-1.488;2023-09-12T00:29:34;100142.81;;;25.58;49.59
29879;BME280;16752;53.364;-1.488;2023-09-12T00:32:18;100087.06;;;25.27;49.61
29879;BME280;16752;53.364;-1.488;2023-09-12T00:35:02;100105.84;;;25.27;50.11
29879;BME280;16752;53.364;-1.488;2023-09-12T00:37:46;100099.44;;;25.35;49.43
29879;BME280;16752;53.364;-1.488;2023-09-12T00:40:30;100139.34;;;25.64;49.50
29879;BME280;16752;53.364;-1.488;2023-09-12T00:43:15;100143.06;;;25.63;49.40
29879;BME280;16752;53.364;-1.488;2023-09-12T00:45:59;100079.97;;;25.00;49.57
29879;BME280;16752;53.364;-1.488;2023-09-12T00:48:44;100132.50;;;25.48;49.43
29879;BME280;16752;53.364;-1.488;2023-09-12T00:51:29;100114.91;;;25.33;49.82
29879;BME280;16752;53.364;-1.488;2023-09-12T00:54:14;100101.28;;;25.21;49.88
29879;BME280;16752;53.364;-1.488;2023-09-12T00:56:59;100138.47;;;25.50;49.63
29879;BME280;16752;53.364;-1.488;2023-09-12T00:59:43;100139.91;;;25.53;50.05
29879;BME280;16752;53.364;-1.488;2023-09-12T01:02:27;100069.91;;;25.15;50.08
29879;BME280;16752;53.364;-1.488;2023-09-12T01:05:13;100111.41;;;25.32;50.52
29879;BME280;16752;53.364;-1.488;2023-09-12T01:07:59;100137.25;;;25.46;50.14
29879;BME280;16752;53.364;-1.488;2023-09-12T01:10:43;100110.59;;;25.32;49.75
29879;BME280;16752;53.364;-1.488;2023-09-12T01:13:30;100077.84;;;24.88;50.18
29879;BME280;16752;53.364;-1.488;2023-09-12T01:16:14;100083.59;;;24.85;50.82
29879;BME280;16752;53.364;-1.488;2023-09-12T01:18:58;100113.81;;;25.14;49.87
29879;BME280;16752;53.364;-1.488;2023-09-12T01:27:51;100036.50;;;24.56;50.02
29879;BME280;16752;53.364;-1.488;2023-09-12T01:30:38;100039.78;;;24.52;50.66
29879;BME280;16752;53.364;-1.488;2023-09-12T01:53:07;100045.59;;;24.68;50.31
29879;BME280;16752;53.364;-1.488;2023-09-12T01:55:53;100073.81;;;24.58;50.36
29879;BME280;16752;53.364;-1.488;2023-09-12T01:58:38;99990.47;;;24.05;49.99
29879;BME280;16752;53.364;-1.488;2023-09-12T02:01:22;100048.88;;;24.57;50.43
29879;BME280;16752;53.364;-1.488;2023-09-12T02:04:08;100024.91;;;24.49;50.81
29879;BME280;16752;53.364;-1.488;2023-09-12T02:06:53;100015.00;;;24.36;49.91
29879;BME280;16752;53.364;-1.488;2023-09-12T03:58:24;100107.41;;;24.04;50.51
29879;BME280;16752;53.364;-1.488;2023-09-12T04:01:08;100136.09;;;24.11;50.21
29879;BME280;16752;53.364;-1.488;2023-09-12T04:03:55;100147.69;;;24.24;50.51
29879;BME280;16752;53.364;-1.488;2023-09-12T04:06:40;100011.56;;;23.37;50.17
29879;BME280;16752;53.364;-1.488;2023-09-12T04:09:24;100111.91;;;23.76;50.55
29879;BME280;16752;53.364;-1.488;2023-09-12T04:12:08;100051.59;;;23.52;50.10
29879;BME280;16752;53.364;-1.488;2023-09-12T04:14:55;100089.47;;;23.56;50.12
29879;BME280;16752;53.364;-1.488;2023-09-12T04:17:48;100025.50;;;22.90;50.93
29879;BME280;16752;53.364;-1.488;2023-09-12T04:24:10;100148.09;;;23.72;50.46
29879;BME280;16752;53.364;-1.488;2023-09-12T04:27:18;100141.28;;;23.69;49.77
29879;BME280;16752;53.364;-1.488;2023-09-12T04:34:15;100095.41;;;22.79;51.78
29879;BME280;16752;53.364;-1.488;2023-09-12T04:48:24;100106.22;;;23.22;50.29
29879;BME280;16752;53.364;-1.488;2023-09-12T04:51:08;100083.31;;;22.98;50.71
29879;BME280;16752;53.364;-1.488;2023-09-12T04:53:52;100062.41;;;22.72;50.76
29879;BME280;16752;53.364;-1.488;2023-09-12T04:56:37;100064.84;;;22.67;51.33
29879;BME280;16752;53.364;-1.488;2023-09-12T04:59:20;100072.94;;;22.88;51.04
29879;BME280;16752;53.364;-1.488;2023-09-12T05:02:04;100049.28;;;22.55;50.49
29879;BME280;16752;53.364;-1.488;2023-09-12T05:05:06;100115.78;;;23.16;49.97
29879;BME280;16752;53.364;-1.488;2023-09-12T05:07:51;100028.59;;;22.28;50.14
29879;BME280;16752;53.364;-1.488;2023-09-12T05:10:38;100164.91;;;23.15;50.80
29879;BME280;16752;53.364;-1.488;2023-09-12T05:13:23;100036.97;;;22.40;50.21
29879;BME280;16752;53.364;-1.488;2023-09-12T05:16:07;100107.09;;;22.19;51.52
29879;BME280;16752;53.364;-1.488;2023-09-12T05:18:52;100007.72;;;22.17;50.31
29879;BME280;16752;53.364;-1.488;2023-09-12T05:21:36;100024.53;;;22.32;50.40
29879;BME280;16752;53.364;-1.488;2023-09-12T05:24:23;100003.28;;;22.24;49.69
29879;BME280;16752;53.364;-1.488;2023-09-12T05:27:10;100019.13;;;22.25;50.38
29879;BME280;16752;53.364;-1.488;2023-09-12T05:29:54;99996.94;;;22.25;50.46
29879;BME280;16752;53.364;-1.488;2023-09-12T05:32:38;100155.06;;;23.15;50.64
29879;BME280;16752;53.364;-1.488;2023-09-12T05:35:22;100024.06;;;22.43;50.42
29879;BME280;16752;53.364;-1.488;2023-09-12T05:38:06;100022.69;;;22.47;50.09
29879;BME280;16752;53.364;-1.488;2023-09-12T05:40:51;100015.81;;;22.38;50.27
29879;BME280;16752;53.364;-1.488;2023-09-12T05:43:47;100021.97;;;22.39;50.35
29879;BME280;16752;53.364;-1.488;2023-09-12T05:46:44;100086.03;;;22.83;50.12
29879;BME280;16752;53.364;-1.488;2023-09-12T05:50:10;100090.41;;;22.91;49.90
29879;BME280;16752;53.364;-1.488;2023-09-12T05:53:17;100175.06;;;23.41;49.98
29879;BME280;16752;53.364;-1.488;2023-09-12T05:56:01;100069.72;;;22.63;49.66
29879;BME280;16752;53.364;-1.488;2023-09-12T05:58:47;100050.28;;;22.54;49.95
29879;BME280;16752;53.364;-1.488;2023-09-12T06:01:34;100085.81;;;22.70;50.22
29879;BME280;16752;53.364;-1.488;2023-09-12T06:04:18;100105.63;;;22.61;50.56
29879;BME280;16752;53.364;-1.488;2023-09-12T06:07:02;100126.25;;;22.52;51.14
29879;BME280;16752;53.364;-1.488;2023-09-12T06:09:47;100107.28;;;22.62;50.46
29879;BME280;16752;53.364;-1.488;2023-09-12T06:12:31;100045.34;;;22.22;50.53
29879;BME280;16752;53.364;-1.488;2023-09-12T06:15:17;100207.94;;;23.20;50.70
29879;BME280;16752;53.364;-1.488;2023-09-12T06:18:01;100152.06;;;22.89;50.21
29879;BME280;16752;53.364;-1.488;2023-09-12T06:20:45;100100.00;;;22.55;50.89
29879;BME280;16752;53.364;-1.488;2023-09-12T06:23:29;100196.31;;;23.28;50.99
29879;BME280;16752;53.364;-1.488;2023-09-12T06:26:16;100185.91;;;23.33;50.44
29879;BME280;16752;53.364;-1.488;2023-09-12T06:29:00;100106.81;;;22.73;50.55
29879;BME280;16752;53.364;-1.488;2023-09-12T06:31:45;100082.97;;;22.27;51.17
29879;BME280;16752;53.364;-1.488;2023-09-12T06:34:32;100215.59;;;23.23;50.63
29879;BME280;16752;53.364;-1.488;2023-09-12T06:37:16;100129.00;;;22.73;50.34
29879;BME280;16752;53.364;-1.488;2023-09-12T06:40:00;100178.56;;;22.91;50.53
29879;BME280;16752;53.364;-1.488;2023-09-12T06:42:44;100087.88;;;22.38;50.46
29879;BME280;16752;53.364;-1.488;2023-09-12T06:45:27;100114.00;;;22.58;50.05
29879;BME280;16752;53.364;-1.488;2023-09-12T06:48:11;100120.53;;;22.40;50.96
29879;BME280;16752;53.364;-1.488;2023-09-12T06:50:55;100168.63;;;22.84;50.50
29879;BME280;16752;53.364;-1.488;2023-09-12T06:53:40;100111.03;;;22.52;50.34
29879;BME280;16752;53.364;-1.488;2023-09-12T06:56:24;100056.94;;;22.14;50.86
29879;BME280;16752;53.364;-1.488;2023-09-12T06:59:08;100134.06;;;22.53;51.12
29879;BME280;16752;53.364;-1.488;2023-09-12T07:01:53;100225.47;;;23.23;50.40
29879;BME280;16752;53.364;-1.488;2023-09-12T07:04:37;100136.09;;;22.81;50.32
29879;BME280;16752;53.364;-1.488;2023-09-12T07:07:21;100175.34;;;22.95;49.96
29879;BME280;16752;53.364;-1.488;2023-09-12T07:10:05;100141.03;;;22.25;51.86
29879;BME280;16752;53.364;-1.488;2023-09-12T07:12:49;100237.25;;;23.13;50.90
29879;BME280;16752;53.364;-1.488;2023-09-12T07:15:35;100243.44;;;23.14;50.40
29879;BME280;16752;53.364;-1.488;2023-09-12T07:18:23;100193.06;;;22.81;50.49
29879;BME280;16752;53.364;-1.488;2023-09-12T07:21:07;100243.25;;;23.01;51.00
29879;BME280;16752;53.364;-1.488;2023-09-12T07:23:55;100188.56;;;22.74;50.62
29879;BME280;16752;53.364;-1.488;2023-09-12T07:26:39;100085.53;;;22.06;50.56
29879;BME280;16752;53.364;-1.488;2023-09-12T07:29:26;100206.56;;;22.80;50.90
29879;BME280;16752;53.364;-1.488;2023-09-12T07:32:14;100118.63;;;22.34;50.85
29879;BME280;16752;53.364;-1.488;2023-09-12T07:35:04;100264.25;;;23.18;50.74
29879;BME280;16752;53.364;-1.488;2023-09-12T07:37:49;100201.53;;;22.85;51.10
29879;BME280;16752;53.364;-1.488;2023-09-12T07:40:35;100193.41;;;22.93;50.95
29879;BME280;16752;53.364;-1.488;2023-09-12T07:43:22;100251.44;;;23.29;50.80
29879;BME280;16752;53.364;-1.488;2023-09-12T07:46:06;100262.97;;;23.44;50.73
29879;BME280;16752;53.364;-1.488;2023-09-12T07:49:22;100267.47;;;23.29;50.76
29879;BME280;16752;53.364;-1.488;2023-09-12T07:52:09;100259.06;;;23.46;50.84
29879;BME280;16752;53.364;-1.488;2023-09-12T07:54:59;100220.94;;;23.08;50.43
29879;BME280;16752;53.364;-1.488;2023-09-12T07:57:43;100254.56;;;23.32;51.13
29879;BME280;16752;53.364;-1.488;2023-09-12T08:00:27;100265.72;;;22.92;51.10
29879;BME280;16752;53.364;-1.488;2023-09-12T08:03:11;100218.66;;;23.05;50.67
29879;BME280;16752;53.364;-1.488;2023-09-12T08:05:59;100201.41;;;23.08;50.25
29879;BME280;16752;53.364;-1.488;2023-09-12T08:08:46;100271.81;;;23.15;51.71
29879;BME280;16752;53.364;-1.488;2023-09-12T08:11:30;100099.72;;;22.50;50.52
29879;BME280;16752;53.364;-1.488;2023-09-12T08:14:14;100174.88;;;22.62;51.38
29879;BME280;16752;53.364;-1.488;2023-09-12T08:16:58;100189.06;;;22.77;50.78
29879;BME280;16752;53.364;-1.488;2023-09-12T08:19:42;100122.38;;;22.54;50.17
29879;BME280;16752;53.364;-1.488;2023-09-12T08:22:27;100199.25;;;22.74;51.48
29879;BME280;16752;53.364;-1.488;2023-09-12T08:25:11;100165.66;;;22.79;50.75
29879;BME280;16752;53.364;-1.488;2023-09-12T08:27:57;100238.78;;;23.37;50.86
29879;BME280;16752;53.364;-1.488;2023-09-12T08:30:44;100241.44;;;23.52;50.46
29879;BME280;16752;53.364;-1.488;2023-09-12T08:33:28;100085.84;;;22.40;51.03
29879;BME280;16752;53.364;-1.488;2023-09-12T08:36:15;100135.09;;;22.67;50.67
29879;BME280;16752;53.364;-1.488;2023-09-12T08:38:59;100108.09;;;22.47;50.80
29879;BME280;16752;53.364;-1.488;2023-09-12T08:41:44;100278.81;;;23.16;52.16
29879;BME280;16752;53.364;-1.488;2023-09-12T08:44:32;100190.47;;;22.88;51.47
29879;BME280;16752;53.364;-1.488;2023-09-12T08:47:18;100194.94;;;22.73;51.52
29879;BME280;16752;53.364;-1.488;2023-09-12T08:50:04;100236.59;;;23.26;50.80
29879;BME280;16752;53.364;-1.488;2023-09-12T08:52:49;100240.91;;;23.42;49.97
29879;BME280;16752;53.364;-1.488;2023-09-12T08:55:34;100259.34;;;23.37;50.81
29879;BME280;16752;53.364;-1.488;2023-09-12T08:58:22;100164.75;;;22.58;51.28
29879;BME280;16752;53.364;-1.488;2023-09-12T09:01:10;100250.69;;;23.20;51.30
29879;BME280;16752;53.364;-1.488;2023-09-12T09:03:57;100305.06;;;23.42;51.29
29879;BME280;16752;53.364;-1.488;2023-09-12T09:06:42;100209.31;;;23.31;50.29
29879;BME280;16752;53.364;-1.488;2023-09-12T09:09:27;100213.75;;;23.09;51.04
29879;BME280;16752;53.364;-1.488;2023-09-12T09:12:14;100239.75;;;23.00;51.13
29879;BME280;16752;53.364;-1.488;2023-09-12T09:14:58;100222.59;;;23.09;50.82
29879;BME280;16752;53.364;-1.488;2023-09-12T09:17:42;100301.66;;;23.48;51.22
29879;BME280;16752;53.364;-1.488;2023-09-12T09:20:29;100224.53;;;22.86;51.49
29879;BME280;16752;53.364;-1.488;2023-09-12T09:23:13;100291.34;;;23.45;50.81
29879;BME280;16752;53.364;-1.488;2023-09-12T09:25:57;100180.59;;;22.59;51.15
29879;BME280;16752;53.364;-1.488;2023-09-12T09:28:42;100329.97;;;23.57;50.31
29879;BME280;16752;53.364;-1.488;2023-09-12T09:31:26;100333.13;;;23.46;50.81
29879;BME280;16752;53.364;-1.488;2023-09-12T09:34:16;100173.78;;;22.19;52.08
29879;BME280;16752;53.364;-1.488;2023-09-12T09:37:02;100201.53;;;22.47;52.21
29879;BME280;16752;53.364;-1.488;2023-09-12T09:39:47;100316.88;;;23.62;51.45
29879;BME280;16752;53.364;-1.488;2023-09-12T09:42:36;100245.09;;;23.00;50.80
29879;BME280;16752;53.364;-1.488;2023-09-12T09:45:19;100283.53;;;23.29;51.44
29879;BME280;16752;53.364;-1.488;2023-09-12T09:48:06;100195.13;;;22.71;51.57
29879;BME280;16752;53.364;-1.488;2023-09-12T09:50:51;100191.19;;;22.97;50.83
29879;BME280;16752;53.364;-1.488;2023-09-12T09:53:41;100194.22;;;22.94;50.13
29879;BME280;16752;53.364;-1.488;2023-09-12T09:56:47;100344.06;;;23.51;51.44
29879;BME280;16752;53.364;-1.488;2023-09-12T09:59:32;100204.22;;;22.77;51.22
29879;BME280;16752;53.364;-1.488;2023-09-12T10:02:20;100239.56;;;22.87;50.71
29879;BME280;16752;53.364;-1.488;2023-09-12T10:23:38;100212.72;;;22.80;51.17
29879;BME280;16752;53.364;-1.488;2023-09-12T10:46:45;100234.22;;;22.87;50.98
29879;BME280;16752;53.364;-1.488;2023-09-12T11:00:39;100214.09;;;22.76;51.42
29879;BME280;16752;53.364;-1.488;2023-09-12T11:12:04;100259.00;;;23.25;50.45
29879;BME280;16752;53.364;-1.488;2023-09-12T11:20:20;100293.53;;;22.60;51.59
29879;BME280;16752;53.364;-1.488;2023-09-12T11:23:10;100251.25;;;22.48;50.83
29879;BME280;16752;53.364;-1.488;2023-09-12T11:26:05;100239.41;;;22.66;50.39
29879;BME280;16752;53.364;-1.488;2023-09-12T11:28:50;100363.16;;;23.48;50.74
29879;BME280;16752;53.364;-1.488;2023-09-12T11:31:35;100306.09;;;23.11;50.89
29879;BME280;16752;53.364;-1.488;2023-09-12T11:34:25;100326.56;;;23.48;50.25
29879;BME280;16752;53.364;-1.488;2023-09-12T11:39:51;100332.72;;;23.05;51.31
29879;BME280;16752;53.364;-1.488;2023-09-12T11:42:39;100283.69;;;23.27;50.46
29879;BME280;16752;53.364;-1.488;2023-09-12T11:45:24;100273.66;;;22.77;51.65
29879;BME280;16752;53.364;-1.488;2023-09-12T11:48:09;100258.63;;;23.13;50.42
29879;BME280;16752;53.364;-1.488;2023-09-12T11:50:55;100281.94;;;23.34;50.62
29879;BME280;16752;53.364;-1.488;2023-09-12T11:53:40;100277.50;;;23.41;50.71
29879;BME280;16752;53.364;-1.488;2023-09-12T11:56:24;100290.25;;;23.25;51.08
29879;BME280;16752;53.364;-1.488;2023-09-12T11:59:08;100218.56;;;22.84;52.04
29879;BME280;16752;53.364;-1.488;2023-09-12T12:01:52;100322.03;;;23.78;50.72
29879;BME280;16752;53.364;-1.488;2023-09-12T12:04:38;100294.13;;;23.66;50.78
29879;BME280;16752;53.364;-1.488;2023-09-12T12:07:22;100306.22;;;23.84;50.68
29879;BME280;16752;53.364;-1.488;2023-09-12T12:10:07;100235.66;;;23.48;50.61
29879;BME280;16752;53.364;-1.488;2023-09-12T12:15:42;100378.63;;;24.12;50.58
29879;BME280;16752;53.364;-1.488;2023-09-12T12:18:25;100235.13;;;23.09;50.02
29879;BME280;16752;53.364;-1.488;2023-09-12T12:21:14;100234.13;;;22.95;50.29
29879;BME280;16752;53.364;-1.488;2023-09-12T12:24:12;100325.16;;;23.53;51.20
29879;BME280;16752;53.364;-1.488;2023-09-12T12:27:20;100254.56;;;23.17;51.00
29879;BME280;16752;53.364;-1.488;2023-09-12T12:30:08;100330.94;;;23.86;50.56
29879;BME280;16752;53.364;-1.488;2023-09-12T12:32:53;100308.38;;;23.88;50.13
29879;BME280;16752;53.364;-1.488;2023-09-12T12:35:37;100364.53;;;24.24;49.63
29879;BME280;16752;53.364;-1.488;2023-09-12T12:41:03;100382.16;;;23.97;49.94
29879;BME280;16752;53.364;-1.488;2023-09-12T12:43:50;100259.53;;;23.21;49.79
29879;BME280;16752;53.364;-1.488;2023-09-12T12:46:50;100306.75;;;23.28;50.40
29879;BME280;16752;53.364;-1.488;2023-09-12T12:49:39;100317.13;;;22.94;51.05
29879;BME280;16752;53.364;-1.488;2023-09-12T12:52:28;100279.47;;;23.03;50.86
29879;BME280;16752;53.364;-1.488;2023-09-12T12:55:16;100279.47;;;23.03;50.55
29879;BME280;16752;53.364;-1.488;2023-09-12T12:58:04;100340.69;;;23.57;50.70
29879;BME280;16752;53.364;-1.488;2023-09-12T13:00:48;100258.91;;;23.04;50.50
29879;BME280;16752;53.364;-1.488;2023-09-12T13:03:37;100267.28;;;23.15;50.07
29879;BME280;16752;53.364;-1.488;2023-09-12T13:06:25;100306.09;;;23.11;49.82
29879;BME280;16752;53.364;-1.488;2023-09-12T13:15:10;100333.75;;;22.81;51.51
29879;BME280;16752;53.364;-1.488;2023-09-12T13:23:38;100372.19;;;23.47;50.45
29879;BME280;16752;53.364;-1.488;2023-09-12T13:26:40;100286.91;;;22.93;50.59
29879;BME280;16752;53.364;-1.488;2023-09-12T13:29:28;100389.72;;;23.50;50.40
29879;BME280;16752;53.364;-1.488;2023-09-12T13:32:18;100270.44;;;22.67;50.65
29879;BME280;16752;53.364;-1.488;2023-09-12T13:43:32;100356.69;;;23.28;49.90
29879;BME280;16752;53.364;-1.488;2023-09-12T13:46:23;100291.44;;;22.70;50.31
29879;BME280;16752;53.364;-1.488;2023-09-12T13:55:04;100374.31;;;23.37;50.35
29879;BME280;16752;53.364;-1.488;2023-09-12T14:03:35;100266.06;;;22.36;51.17
29879;BME280;16752;53.364;-1.488;2023-09-12T14:12:47;100446.03;;;23.33;50.51
29879;BME280;16752;53.364;-1.488;2023-09-12T14:15:36;100381.28;;;23.08;50.06
29879;BME280;16752;53.364;-1.488;2023-09-12T14:18:22;100446.34;;;23.53;50.15
29879;BME280;16752;53.364;-1.488;2023-09-12T14:21:28;100453.94;;;23.27;50.95
29879;BME280;16752;53.364;-1.488;2023-09-12T14:24:12;100317.88;;;22.65;49.92
29879;BME280;16752;53.364;-1.488;2023-09-12T14:26:59;100322.94;;;22.06;50.67
29879;BME280;16752;53.364;-1.488;2023-09-12T14:29:45;100299.13;;;22.50;50.15
29879;BME280;16752;53.364;-1.488;2023-09-12T14:32:32;100329.75;;;22.62;50.48
29879;BME280;16752;53.364;-1.488;2023-09-12T14:35:17;100409.91;;;23.52;49.56
29879;BME280;16752;53.364;-1.488;2023-09-12T14:38:01;100371.88;;;23.12;50.01
29879;BME280;16752;53.364;-1.488;2023-09-12T14:40:45;100371.16;;;22.81;50.76
29879;BME280;16752;53.364;-1.488;2023-09-12T14:43:29;100449.44;;;23.65;49.85
29879;BME280;16752;53.364;-1.488;2023-09-12T14:46:13;100430.56;;;23.43;49.14
29879;BME280;16752;53.364;-1.488;2023-09-12T14:48:58;100449.63;;;23.40;50.00
29879;BME280;16752;53.364;-1.488;2023-09-12T14:51:43;100382.66;;;23.04;50.04
29879;BME280;16752;53.364;-1.488;2023-09-12T14:54:27;100418.59;;;23.16;50.15
29879;BME280;16752;53.364;-1.488;2023-09-12T14:57:11;100387.78;;;22.91;50.92
29879;BME280;16752;53.364;-1.488;2023-09-12T14:59:58;100456.88;;;22.94;51.72
29879;BME280;16752;53.364;-1.488;2023-09-12T15:02:42;100389.97;;;22.88;51.68
29879;BME280;16752;53.364;-1.488;2023-09-12T15:05:26;100431.44;;;22.98;51.51
29879;BME280;16752;53.364;-1.488;2023-09-12T15:08:10;100452.78;;;23.06;51.74
29879;BME280;16752;53.364;-1.488;2023-09-12T15:10:55;100380.50;;;22.85;51.17
29879;BME280;16752;53.364;-1.488;2023-09-12T15:13:39;100336.56;;;22.65;51.00
29879;BME280;16752;53.364;-1.488;2023-09-12T15:16:24;100347.06;;;22.66;51.23
29879;BME280;16752;53.364;-1.488;2023-09-12T15:19:15;100340.34;;;22.47;51.25
29879;BME280;16752;53.364;-1.488;2023-09-12T15:22:00;100432.84;;;23.32;50.27
29879;BME280;16752;53.364;-1.488;2023-09-12T15:24:46;100442.09;;;23.44;49.14
29879;BME280;16752;53.364;-1.488;2023-09-12T15:27:31;100441.50;;;23.34;49.17
29879;BME280;16752;53.364;-1.488;2023-09-12T15:30:18;100428.09;;;23.19;50.24
29879;BME280;16752;53.364;-1.488;2023-09-12T15:33:02;100334.13;;;22.78;50.18
29879;BME280;16752;53.364;-1.488;2023-09-12T15:36:36;100442.69;;;22.94;50.50
29879;BME280;16752;53.364;-1.488;2023-09-12T15:39:32;100424.81;;;23.32;49.49
29879;BME280;16752;53.364;-1.488;2023-09-12T15:42:17;100447.06;;;23.09;49.91
29879;BME280;16752;53.364;-1.488;2023-09-12T15:45:01;100366.00;;;22.56;49.83
29879;BME280;16752;53.364;-1.488;2023-09-12T15:47:46;100486.53;;;23.45;49.61
29879;BME280;16752;53.364;-1.488;2023-09-12T15:50:38;100444.50;;;23.16;49.54
29879;BME280;16752;53.364;-1.488;2023-09-12T15:53:23;100413.22;;;22.56;50.49
29879;BME280;16752;53.364;-1.488;2023-09-12T15:56:10;100494.34;;;23.09;50.58
29879;BME280;16752;53.364;-1.488;2023-09-12T15:58:56;100418.41;;;22.80;50.23
29879;BME280;16752;53.364;-1.488;2023-09-12T16:01:41;100506.03;;;23.31;50.00
29879;BME280;16752;53.364;-1.488;2023-09-12T16:04:25;100414.75;;;22.81;49.26
29879;BME280;16752;53.364;-1.488;2023-09-12T16:07:34;100450.09;;;23.06;49.67
29879;BME280;16752;53.364;-1.488;2023-09-12T16:10:38;100420.22;;;22.34;50.48
29879;BME280;16752;53.364;-1.488;2023-09-12T16:13:22;100387.28;;;22.42;49.12
29879;BME280;16752;53.364;-1.488;2023-09-12T16:16:06;100470.78;;;22.59;50.73
29879;BME280;16752;53.364;-1.488;2023-09-12T16:18:50;100488.19;;;22.77;49.58
29879;BME280;16752;53.364;-1.488;2023-09-12T16:21:43;100528.19;;;23.16;49.87
29879;BME280;16752;53.364;-1.488;2023-09-12T16:24:30;100469.81;;;22.51;50.38
29879;BME280;16752;53.364;-1.488;2023-09-12T16:27:17;100487.53;;;22.83;49.39
29879;BME280;16752;53.364;-1.488;2023-09-12T16:30:02;100408.66;;;22.65;49.18
29879;BME280;16752;53.364;-1.488;2023-09-12T16:32:51;100526.47;;;23.24;49.97
29879;BME280;16752;53.364;-1.488;2023-09-12T16:35:36;100478.59;;;22.91;49.38
29879;BME280;16752;53.364;-1.488;2023-09-12T16:38:40;100428.47;;;22.47;49.66
29879;BME280;16752;53.364;-1.488;2023-09-12T16:45:21;100414.69;;;22.36;49.78
29879;BME280;16752;53.364;-1.488;2023-09-12T16:48:06;100435.72;;;22.31;50.14
29879;BME280;16752;53.364;-1.488;2023-09-12T16:50:50;100455.78;;;22.58;49.22
29879;BME280;16752;53.364;-1.488;2023-09-12T16:53:38;100533.84;;;23.22;49.29
29879;BME280;16752;53.364;-1.488;2023-09-12T16:56:22;100490.34;;;22.51;50.35
29879;BME280;16752;53.364;-1.488;2023-09-12T16:59:06;100548.13;;;22.83;50.17
29879;BME280;16752;53.364;-1.488;2023-09-12T17:01:53;100556.53;;;22.64;50.07
29879;BME280;16752;53.364;-1.488;2023-09-12T17:04:57;100515.13;;;22.37;50.12
29879;BME280;16752;53.364;-1.488;2023-09-12T17:07:41;100561.47;;;22.75;49.86
29879;BME280;16752;53.364;-1.488;2023-09-12T17:10:27;100450.19;;;21.89;50.13
29879;BME280;16752;53.364;-1.488;2023-09-12T17:13:10;100482.19;;;22.44;49.40
29879;BME280;16752;53.364;-1.488;2023-09-12T17:15:55;100572.16;;;22.83;50.43
29879;BME280;16752;53.364;-1.488;2023-09-12T17:18:43;100578.03;;;23.09;49.01
29879;BME280;16752;53.364;-1.488;2023-09-12T17:21:27;100486.16;;;22.17;50.29
29879;BME280;16752;53.364;-1.488;2023-09-12T17:24:20;100463.66;;;22.12;49.94
29879;BME280;16752;53.364;-1.488;2023-09-12T17:27:04;100527.00;;;22.65;50.15
29879;BME280;16752;53.364;-1.488;2023-09-12T17:29:48;100511.22;;;22.47;49.36
29879;BME280;16752;53.364;-1.488;2023-09-12T17:32:33;100513.78;;;22.33;49.93
29879;BME280;16752;53.364;-1.488;2023-09-12T17:35:31;100590.56;;;22.70;49.91
29879;BME280;16752;53.364;-1.488;2023-09-12T17:38:16;100591.44;;;22.62;49.89
29879;BME280;16752;53.364;-1.488;2023-09-12T17:41:11;100435.16;;;21.24;50.21
29879;BME280;16752;53.364;-1.488;2023-09-12T17:44:04;100575.69;;;22.28;49.14
29879;BME280;16752;53.364;-1.488;2023-09-12T17:46:51;100604.75;;;21.99;50.89
29879;BME280;16752;53.364;-1.488;2023-09-12T17:49:35;100595.56;;;22.09;50.56
29879;BME280;16752;53.364;-1.488;2023-09-12T17:52:19;100573.56;;;22.07;49.85
29879;BME280;16752;53.364;-1.488;2023-09-12T17:55:06;100606.75;;;22.21;49.86
29879;BME280;16752;53.364;-1.488;2023-09-12T17:57:54;100524.78;;;21.50;49.67
29879;BME280;16752;53.364;-1.488;2023-09-12T18:00:41;100535.94;;;21.37;50.12
29879;BME280;16752;53.364;-1.488;2023-09-12T18:03:26;100582.25;;;21.93;49.75
29879;BME280;16752;53.364;-1.488;2023-09-12T18:06:13;100564.44;;;21.61;49.80
29879;BME280;16752;53.364;-1.488;2023-09-12T18:09:03;100583.94;;;21.70;49.55
29879;BME280;16752;53.364;-1.488;2023-09-12T18:12:00;100651.59;;;21.85;49.29
29879;BME280;16752;53.364;-1.488;2023-09-12T18:14:54;100528.06;;;21.19;49.32
29879;BME280;16752;53.364;-1.488;2023-09-12T18:17:38;100601.75;;;21.61;49.77
29879;BME280;16752;53.364;-1.488;2023-09-12T18:20:24;100608.75;;;21.78;49.94
29879;BME280;16752;53.364;-1.488;2023-09-12T18:23:08;100621.56;;;21.66;49.99
29879;BME280;16752;53.364;-1.488;2023-09-12T18:25:53;100616.75;;;21.54;50.25
29879;BME280;16752;53.364;-1.488;2023-09-12T18:32:12;100677.09;;;21.79;50.53
29879;BME280;16752;53.364;-1.488;2023-09-12T18:34:56;100625.59;;;21.62;49.52
29879;BME280;16752;53.364;-1.488;2023-09-12T18:37:41;100533.56;;;21.10;49.67
29879;BME280;16752;53.364;-1.488;2023-09-12T18:40:25;100680.63;;;21.96;49.82
29879;BME280;16752;53.364;-1.488;2023-09-12T18:43:11;100597.44;;;21.52;50.17
29879;BME280;16752;53.364;-1.488;2023-09-12T18:45:57;100603.09;;;21.65;49.70
29879;BME280;16752;53.364;-1.488;2023-09-12T18:48:41;100534.72;;;21.15;49.82
29879;BME280;16752;53.364;-1.488;2023-09-12T18:51:33;100595.09;;;21.57;49.65
29879;BME280;16752;53.364;-1.488;2023-09-12T18:54:20;100622.09;;;21.54;51.05